Angeles, Philippines
Current Conditions -  °F | °C
As of 3:00 PM on Sunday 26 Oct 2014 (Local Time) from RPLB Reporting Station
Broken Clouds Broken Clouds  
Wind Chill: 84°   Ceiling: 8000
Heat Index: 92°   Visibility: 6mi
Dew Point: 75°   Wind: 7mph
Humidity: 74%   Direction: 70°ENE
Pressure: 29.8"   Gusts: NA
Location:  15.15°N, 120.55°E
Report Text: RPLB 260700Z 07006KT 9999 FEW018 BKN080 29/24 Q1009 DSTNT PCPN N
Loading
Personal Weather Stations






























Interactive Weather Map
Tropical Storm Tracking
New forecast layout! Learn more

10-Day Weather Forecast

Advertisements
Track Severe Weather on mobile